ABZ weather

Aberdeen Dyce Airport
Aberdeen, Scotland, United Kingdom

Public forecast

Using degrees Celsius for public forecast. Weather courtesy of forecast.io.

Current aviation weather report (METAR) for Aberdeen Dyce Airport

Retrieved 2020/04/02 02:20 UTC (40 minutes ago):

EGPD 020220Z AUTO 23009KT 9999 NCD 05/M01 Q1006

Aviation forecast (TAF) for Aberdeen Dyce Airport

Retrieved 2020-04-02 00:00 UTC (3 hours ago):

TAF EGPD 012255Z 0200/0224 25007KT 9999 SCT030 BECMG 0206/0209 30020KT TEMPO 0209/0218 31028G38KT PROB30 TEMPO 0209/0224 3000 -SHSN BKN014CB BECMG 0218/0221 26010KT